Time;durP1;ratioP1;P1;durP2;ratioP2;P2;SDS_P1;SDS_P2;PMS_P1;PMS_P2;Temp;Humidity;BMP_temperature;BMP_pressure;BME280_temperature;BME280_humidity;BME280_pressure;Samples;Min_cycle;Max_cycle;Signal;HPM_P1;HPM_P2
2022/11/23 00:01:19;;;;;;;0.10;0.10;;;8.60;99.90;;;;;;5010948;28;20046;-68
2022/11/23 00:03:46;;;;;;;0.10;0.10;;;8.60;99.90;;;;;;5007566;28;20108;-68
2022/11/23 00:06:12;;;;;;;0.55;0.55;;;8.60;99.90;;;;;;4992780;28;20509;-67
2022/11/23 00:08:37;;;;;;;0.10;0.10;;;8.60;99.90;;;;;;5009721;28;20038;-67
2022/11/23 00:11:03;;;;;;;0.10;0.10;;;8.70;99.90;;;;;;4991261;28;20382;-67
2022/11/23 00:13:29;;;;;;;0.10;0.10;;;8.60;99.90;;;;;;5009377;28;20057;-67
2022/11/23 00:15:54;;;;;;;0.50;0.50;;;8.60;99.90;;;;;;5007149;28;20069;-68
2022/11/23 00:18:20;;;;;;;0.10;0.10;;;8.60;99.90;;;;;;4996192;28;20104;-67
2022/11/23 00:20:45;;;;;;;0.10;0.10;;;8.60;99.90;;;;;;5007197;28;20049;-68
2022/11/23 00:23:11;;;;;;;0.00;0.00;;;8.60;99.90;;;;;;5009783;28;20045;-67
2022/11/23 00:25:36;;;;;;;0.25;0.25;;;8.60;99.90;;;;;;4992088;28;20396;-67
2022/11/23 00:28:02;;;;;;;0.10;0.10;;;8.60;99.90;;;;;;5007870;28;20072;-67
2022/11/23 00:30:28;;;;;;;0.10;0.10;;;8.60;99.90;;;;;;5010252;28;20493;-67
2022/11/23 00:32:54;;;;;;;0.10;0.10;;;8.60;99.90;;;;;;5001344;28;20043;-67
2022/11/23 00:35:20;;;;;;;0.10;0.10;;;8.60;99.90;;;;;;4996404;28;20058;-67
2022/11/23 00:37:46;;;;;;;0.10;0.10;;;8.60;99.90;;;;;;4993952;28;20053;-67
2022/11/23 00:40:12;;;;;;;0.20;0.20;;;8.60;99.90;;;;;;5006888;28;20478;-68
2022/11/23 00:42:37;;;;;;;0.20;0.20;;;8.50;99.90;;;;;;4996358;28;20057;-68
2022/11/23 00:45:03;;;;;;;0.77;0.75;;;8.60;99.90;;;;;;4991251;28;20858;-67
2022/11/23 00:47:29;;;;;;;0.00;0.00;;;8.60;99.90;;;;;;4992729;28;20077;-67
2022/11/23 00:49:54;;;;;;;0.30;0.30;;;8.60;99.90;;;;;;4992955;28;20137;-68
2022/11/23 00:52:20;;;;;;;0.35;0.35;;;8.60;99.90;;;;;;4996208;28;20045;-67
2022/11/23 00:54:45;;;;;;;0.03;0.03;;;8.50;99.90;;;;;;5001321;28;20059;-68
2022/11/23 00:57:11;;;;;;;3.10;0.80;;;8.50;99.90;;;;;;4977920;28;20050;-67
2022/11/23 00:59:36;;;;;;;0.20;0.20;;;8.50;99.90;;;;;;4984482;28;20508;-67
2022/11/23 01:02:02;;;;;;;0.10;0.10;;;8.50;99.90;;;;;;4995102;28;20514;-67
2022/11/23 01:04:28;;;;;;;0.10;0.10;;;8.60;99.90;;;;;;5013090;28;20046;-68
2022/11/23 01:06:58;;;;;;;0.20;0.20;;;8.60;99.90;;;;;;5008168;28;20054;-68
2022/11/23 01:09:25;;;;;;;0.20;0.20;;;8.60;99.90;;;;;;4998287;28;20049;-67
2022/11/23 01:11:54;;;;;;;0.10;0.10;;;8.60;99.90;;;;;;5003762;28;20043;-67
2022/11/23 01:14:20;;;;;;;0.10;0.10;;;8.60;99.90;;;;;;5005206;28;20453;-68
2022/11/23 01:16:46;;;;;;;0.20;0.20;;;8.60;99.90;;;;;;5007871;28;20038;-68
2022/11/23 01:19:20;;;;;;;1.10;1.00;;;8.60;99.90;;;;;;4995098;28;20129;-68
2022/11/23 01:21:46;;;;;;;0.20;0.20;;;8.60;99.90;;;;;;5015262;28;20066;-68
2022/11/23 01:24:20;;;;;;;0.43;0.43;;;8.60;99.90;;;;;;4990562;28;20111;-68
2022/11/23 01:26:50;;;;;;;0.30;0.30;;;8.60;99.90;;;;;;4998886;28;20115;-68
2022/11/23 01:29:16;;;;;;;1.35;0.57;;;8.50;99.90;;;;;;5020565;28;20037;-67
2022/11/23 01:31:42;;;;;;;0.65;0.65;;;8.60;99.90;;;;;;5016543;28;20658;-67
2022/11/23 01:34:10;;;;;;;0.43;0.35;;;8.60;99.90;;;;;;5011469;28;20061;-67
2022/11/23 01:36:36;;;;;;;0.43;0.43;;;8.50;99.90;;;;;;4979300;28;20518;-68
2022/11/23 01:39:04;;;;;;;0.10;0.10;;;8.60;99.90;;;;;;4995630;28;20058;-68
2022/11/23 01:41:35;;;;;;;0.20;0.20;;;8.50;99.90;;;;;;4992797;28;20050;-68
2022/11/23 01:44:23;;;;;;;0.10;0.10;;;8.60;99.90;;;;;;5000412;28;20481;-68
2022/11/23 01:46:48;;;;;;;0.10;0.10;;;8.50;99.90;;;;;;4994774;28;20041;-68
2022/11/23 01:49:14;;;;;;;0.10;0.10;;;8.60;99.90;;;;;;5010639;28;20046;-68
2022/11/23 01:51:43;;;;;;;1.45;1.35;;;8.60;99.90;;;;;;5011535;28;20042;-67
2022/11/23 01:54:13;;;;;;;0.10;0.10;;;8.50;99.90;;;;;;5008548;28;20049;-67
2022/11/23 01:56:43;;;;;;;0.00;0.00;;;8.60;99.90;;;;;;4992908;28;20050;-67
2022/11/23 01:59:15;;;;;;;0.30;0.30;;;8.50;99.90;;;;;;4991896;28;20044;-68
2022/11/23 02:01:41;;;;;;;0.17;0.17;;;8.60;99.90;;;;;;4992299;28;20497;-68
2022/11/23 02:04:11;;;;;;;0.10;0.10;;;8.50;99.90;;;;;;4980285;28;20125;-67
2022/11/23 02:06:39;;;;;;;0.60;0.60;;;8.50;99.90;;;;;;4999440;28;20064;-67
2022/11/23 02:09:06;;;;;;;0.10;0.10;;;8.60;99.90;;;;;;5007402;28;20093;-67
2022/11/23 02:11:31;;;;;;;0.85;0.85;;;8.60;99.90;;;;;;4992352;28;20169;-67
2022/11/23 02:13:57;;;;;;;3.75;1.67;;;8.60;99.90;;;;;;4972784;28;20553;-68
2022/11/23 02:16:23;;;;;;;0.00;0.00;;;8.60;99.90;;;;;;4993456;28;20065;-68
2022/11/23 02:18:49;;;;;;;0.10;0.10;;;8.60;99.90;;;;;;5004593;28;20133;-68
2022/11/23 02:21:15;;;;;;;0.10;0.10;;;8.60;99.90;;;;;;4991617;28;20055;-67
2022/11/23 02:24:06;;;;;;;1.45;1.08;;;8.60;99.90;;;;;;4992038;28;20050;-68
2022/11/23 02:26:34;;;;;;;0.10;0.10;;;8.60;99.90;;;;;;5000867;28;20100;-68
2022/11/23 02:29:09;;;;;;;1.20;1.13;;;8.60;99.90;;;;;;5004436;28;20045;-68
2022/11/23 02:31:34;;;;;;;0.10;0.10;;;8.60;99.90;;;;;;5008728;28;20077;-68
2022/11/23 02:34:00;;;;;;;0.10;0.10;;;8.60;99.90;;;;;;4979685;28;20138;-68
2022/11/23 02:36:42;;;;;;;0.17;0.17;;;8.60;99.90;;;;;;5004142;28;20051;-68
2022/11/23 02:39:29;;;;;;;0.10;0.10;;;8.60;99.90;;;;;;4995077;28;20548;-68
2022/11/23 02:41:56;;;;;;;0.47;0.35;;;8.60;99.90;;;;;;5009136;28;20046;-67
2022/11/23 02:44:25;;;;;;;0.45;0.32;;;8.50;99.90;;;;;;5013553;28;20042;-67
2022/11/23 02:46:52;;;;;;;1.33;1.27;;;8.60;99.90;;;;;;4991814;28;20050;-67
2022/11/23 02:49:17;;;;;;;0.10;0.10;;;8.50;99.90;;;;;;4999236;28;20518;-67
2022/11/23 02:51:43;;;;;;;0.13;0.13;;;8.50;99.90;;;;;;5004556;28;20049;-68
2022/11/23 02:54:08;;;;;;;0.10;0.10;;;8.50;99.90;;;;;;4989993;28;20427;-67
2022/11/23 02:56:34;;;;;;;1.95;0.70;;;8.60;99.90;;;;;;4984276;28;20061;-67
2022/11/23 02:58:59;;;;;;;0.68;0.35;;;8.50;99.90;;;;;;4994474;28;20041;-67
2022/11/23 03:01:25;;;;;;;0.25;0.25;;;8.60;99.90;;;;;;5002388;28;20046;-68
2022/11/23 03:03:51;;;;;;;0.17;0.17;;;8.60;99.90;;;;;;4996271;28;20097;-68
2022/11/23 03:06:17;;;;;;;0.10;0.10;;;8.60;99.90;;;;;;5005099;28;20042;-68
2022/11/23 03:08:42;;;;;;;0.50;0.50;;;8.60;99.90;;;;;;5015119;28;20054;-68
2022/11/23 03:11:08;;;;;;;0.10;0.10;;;8.60;99.90;;;;;;5030570;28;20489;-68
2022/11/23 03:13:33;;;;;;;0.10;0.10;;;8.60;99.90;;;;;;5014261;28;20080;-67
2022/11/23 03:15:59;;;;;;;0.25;0.25;;;8.60;99.90;;;;;;5000656;28;20068;-68
2022/11/23 03:18:25;;;;;;;0.20;0.20;;;8.60;99.90;;;;;;4986706;28;20056;-68
2022/11/23 03:20:50;;;;;;;0.25;0.25;;;8.70;99.90;;;;;;5010110;28;20050;-70
2022/11/23 03:23:16;;;;;;;1.23;1.15;;;8.70;99.90;;;;;;5009023;28;20115;-67
2022/11/23 03:25:41;;;;;;;0.20;0.20;;;8.70;99.90;;;;;;5005902;28;20044;-67
2022/11/23 03:28:07;;;;;;;3.67;1.10;;;8.60;99.90;;;;;;5007998;28;20042;-67
2022/11/23 03:30:33;;;;;;;2.78;2.55;;;8.70;99.90;;;;;;4991678;28;20460;-67
2022/11/23 03:32:58;;;;;;;1.15;0.95;;;8.70;99.90;;;;;;5011425;28;20393;-67
2022/11/23 03:35:24;;;;;;;0.85;0.85;;;8.70;99.90;;;;;;5004636;28;20577;-67
2022/11/23 03:37:49;;;;;;;0.10;0.10;;;8.70;99.90;;;;;;5004148;28;20078;-67
2022/11/23 03:40:15;;;;;;;0.25;0.25;;;8.70;99.90;;;;;;4990640;28;20043;-68
2022/11/23 03:42:40;;;;;;;0.20;0.20;;;8.70;99.90;;;;;;5002186;28;20108;-68
2022/11/23 03:45:08;;;;;;;0.10;0.10;;;8.60;99.90;;;;;;5001520;28;20119;-67
2022/11/23 03:47:33;;;;;;;0.88;0.88;;;8.60;99.90;;;;;;5003572;28;20552;-67
2022/11/23 03:49:59;;;;;;;0.20;0.20;;;8.60;99.90;;;;;;5008651;28;20160;-67
2022/11/23 03:52:24;;;;;;;0.20;0.20;;;8.60;99.90;;;;;;5008442;28;20137;-67
2022/11/23 03:54:50;;;;;;;0.15;0.15;;;8.60;99.90;;;;;;5008339;28;20042;-67
2022/11/23 03:57:16;;;;;;;2.60;1.85;;;8.60;99.90;;;;;;5009878;28;20109;-67
2022/11/23 03:59:41;;;;;;;1.08;1.08;;;8.60;99.90;;;;;;5013958;28;20485;-67
2022/11/23 04:02:07;;;;;;;0.98;0.90;;;8.60;99.90;;;;;;5010374;28;20135;-67
2022/11/23 04:04:34;;;;;;;0.22;0.22;;;8.60;99.90;;;;;;5001836;28;20060;-67
2022/11/23 04:07:00;;;;;;;0.65;0.65;;;8.60;99.90;;;;;;5003393;28;20046;-67
2022/11/23 04:09:25;;;;;;;0.73;0.43;;;8.60;99.90;;;;;;5010499;28;20038;-68
2022/11/23 04:11:51;;;;;;;0.35;0.35;;;8.50;99.90;;;;;;5002382;28;20608;-67
2022/11/23 04:14:16;;;;;;;3.70;0.98;;;8.50;99.90;;;;;;5013958;28;20068;-67
2022/11/23 04:16:42;;;;;;;0.30;0.30;;;8.50;99.90;;;;;;5007003;28;20409;-67
2022/11/23 04:19:08;;;;;;;0.45;0.45;;;8.50;99.90;;;;;;4996185;28;20054;-67
2022/11/23 04:21:33;;;;;;;1.13;0.75;;;8.50;99.90;;;;;;5001109;28;20405;-67
2022/11/23 04:23:59;;;;;;;0.45;0.40;;;8.50;99.90;;;;;;5013528;28;20030;-68
2022/11/23 04:26:24;;;;;;;0.80;0.80;;;8.50;99.90;;;;;;5013158;28;20057;-68
2022/11/23 04:28:50;;;;;;;0.90;0.85;;;8.50;99.90;;;;;;5012793;28;20042;-67
2022/11/23 04:31:16;;;;;;;0.60;0.40;;;8.50;99.90;;;;;;5005958;28;20055;-68
2022/11/23 04:33:41;;;;;;;0.30;0.30;;;8.50;99.90;;;;;;5007976;28;20073;-68
2022/11/23 04:36:07;;;;;;;0.43;0.43;;;8.50;99.90;;;;;;4997637;28;20061;-68
2022/11/23 04:38:33;;;;;;;0.25;0.25;;;8.50;99.90;;;;;;4993150;28;20050;-67
2022/11/23 04:40:58;;;;;;;0.10;0.10;;;8.50;99.90;;;;;;4993597;28;20046;-68
2022/11/23 04:43:24;;;;;;;0.30;0.30;;;8.50;99.90;;;;;;4993725;28;20517;-68
2022/11/23 04:45:49;;;;;;;0.85;0.85;;;8.50;99.90;;;;;;4986238;28;20046;-68
2022/11/23 04:48:15;;;;;;;2.83;1.15;;;8.50;99.90;;;;;;5003434;28;20128;-67
2022/11/23 04:50:41;;;;;;;0.10;0.10;;;8.50;99.90;;;;;;4991337;28;20050;-68
2022/11/23 04:53:07;;;;;;;3.63;2.42;;;8.50;99.90;;;;;;5007279;28;20104;-68
2022/11/23 04:55:32;;;;;;;0.90;0.90;;;8.50;99.90;;;;;;5011249;28;20046;-67
2022/11/23 04:57:58;;;;;;;0.47;0.47;;;8.50;99.90;;;;;;5013175;28;20112;-68
2022/11/23 05:00:24;;;;;;;0.73;0.73;;;8.50;99.90;;;;;;5010261;28;20456;-68
2022/11/23 05:02:50;;;;;;;0.28;0.28;;;8.40;99.90;;;;;;5011339;28;20037;-68
2022/11/23 05:05:15;;;;;;;0.13;0.13;;;8.40;99.90;;;;;;5013161;28;20093;-68
2022/11/23 05:07:41;;;;;;;0.13;0.13;;;8.50;99.90;;;;;;5007749;28;20044;-68
2022/11/23 05:10:07;;;;;;;0.30;0.30;;;8.50;99.90;;;;;;5010196;28;20104;-68
2022/11/23 05:12:33;;;;;;;0.20;0.20;;;8.50;99.90;;;;;;5001982;28;20069;-68
2022/11/23 05:14:59;;;;;;;0.30;0.30;;;8.50;99.90;;;;;;5008229;28;20078;-68
2022/11/23 05:17:24;;;;;;;0.10;0.10;;;8.50;99.90;;;;;;4995756;28;20049;-68
2022/11/23 05:19:50;;;;;;;0.40;0.40;;;8.50;99.90;;;;;;5008653;28;20042;-68
2022/11/23 05:22:15;;;;;;;0.20;0.20;;;8.50;99.90;;;;;;5010293;28;20109;-68
2022/11/23 05:24:41;;;;;;;0.57;0.57;;;8.50;99.90;;;;;;5004143;28;20046;-68
2022/11/23 05:27:07;;;;;;;0.20;0.20;;;8.50;99.90;;;;;;5012336;28;20104;-69
2022/11/23 05:29:32;;;;;;;0.15;0.15;;;8.40;99.90;;;;;;5010527;28;20046;-68
2022/11/23 05:31:58;;;;;;;0.10;0.10;;;8.40;99.90;;;;;;5020782;28;20048;-68
2022/11/23 05:34:23;;;;;;;0.68;0.68;;;8.40;99.90;;;;;;5011770;28;20062;-69
2022/11/23 05:36:49;;;;;;;0.10;0.10;;;8.40;99.90;;;;;;5012190;28;20404;-68
2022/11/23 05:39:15;;;;;;;0.10;0.10;;;8.40;99.90;;;;;;5016063;28;20413;-68
2022/11/23 05:41:40;;;;;;;0.32;0.32;;;8.30;99.90;;;;;;4989746;28;20046;-68
2022/11/23 05:44:06;;;;;;;0.73;0.73;;;8.30;99.90;;;;;;5002676;28;20444;-67
2022/11/23 05:46:31;;;;;;;0.10;0.10;;;8.30;99.90;;;;;;5002606;28;20096;-68
2022/11/23 05:48:57;;;;;;;0.88;0.65;;;8.30;99.90;;;;;;5000291;28;20145;-67
2022/11/23 05:51:22;;;;;;;1.75;1.08;;;8.30;99.90;;;;;;4994762;28;20046;-68
2022/11/23 05:53:48;;;;;;;0.22;0.22;;;8.30;99.90;;;;;;4992348;28;20066;-67
2022/11/23 05:56:13;;;;;;;0.13;0.13;;;8.30;99.90;;;;;;5005599;28;20302;-68
2022/11/23 05:58:39;;;;;;;0.52;0.52;;;8.30;99.90;;;;;;5005290;28;20053;-67
2022/11/23 06:01:05;;;;;;;0.63;0.63;;;8.30;99.90;;;;;;5005113;28;20594;-67
2022/11/23 06:03:30;;;;;;;1.27;1.15;;;8.40;99.90;;;;;;5009444;28;20109;-68
2022/11/23 06:05:56;;;;;;;0.95;0.95;;;8.40;99.90;;;;;;4999785;28;20112;-68
2022/11/23 06:08:21;;;;;;;1.15;1.05;;;8.30;99.90;;;;;;4996991;28;20049;-67
2022/11/23 06:10:47;;;;;;;1.65;1.33;;;8.40;99.90;;;;;;4974416;28;20084;-68
2022/11/23 06:13:12;;;;;;;0.63;0.63;;;8.40;99.90;;;;;;4977214;28;20073;-68
2022/11/23 06:15:38;;;;;;;0.10;0.10;;;8.40;99.90;;;;;;4991854;28;20050;-68
2022/11/23 06:18:04;;;;;;;0.47;0.47;;;8.40;99.90;;;;;;5005053;28;20050;-67
2022/11/23 06:20:29;;;;;;;0.35;0.35;;;8.40;99.90;;;;;;4995022;28;20034;-68
2022/11/23 06:22:55;;;;;;;0.73;0.73;;;8.50;99.90;;;;;;5001890;28;20050;-68
2022/11/23 06:25:21;;;;;;;1.63;0.52;;;8.50;99.90;;;;;;4991073;28;20077;-68
2022/11/23 06:27:58;;;;;;;1.05;1.05;;;8.50;99.90;;;;;;4974202;28;20146;-68
2022/11/23 06:30:24;;;;;;;0.35;0.35;;;8.50;99.90;;;;;;5001983;28;20444;-68
2022/11/23 06:32:50;;;;;;;0.30;0.30;;;8.50;99.90;;;;;;5014869;28;20069;-67
2022/11/23 06:35:16;;;;;;;1.98;1.80;;;8.50;99.90;;;;;;5025675;28;20088;-67
2022/11/23 06:37:42;;;;;;;1.05;1.00;;;8.50;99.90;;;;;;5010999;28;20441;-68
2022/11/23 06:40:09;;;;;;;0.98;0.70;;;8.50;99.90;;;;;;5010727;28;20390;-68
2022/11/23 06:42:35;;;;;;;0.20;0.20;;;8.50;99.90;;;;;;5008683;28;20057;-68
2022/11/23 06:45:00;;;;;;;1.20;1.00;;;8.50;99.90;;;;;;4988605;28;20046;-68
2022/11/23 06:47:27;;;;;;;0.65;0.65;;;8.50;99.90;;;;;;5008168;28;20054;-68
2022/11/23 06:49:52;;;;;;;0.75;0.75;;;8.50;99.90;;;;;;5014074;28;20128;-68
2022/11/23 06:52:18;;;;;;;0.17;0.17;;;8.50;99.90;;;;;;5008005;28;20133;-67
2022/11/23 06:54:44;;;;;;;0.17;0.17;;;8.50;99.90;;;;;;5005723;28;20096;-67
2022/11/23 06:57:09;;;;;;;0.10;0.10;;;8.50;99.90;;;;;;5007550;28;20076;-67
2022/11/23 06:59:35;;;;;;;0.35;0.35;;;8.50;99.90;;;;;;5008448;28;20042;-67
2022/11/23 07:02:00;;;;;;;0.30;0.30;;;8.50;99.90;;;;;;5007659;28;20050;-68
2022/11/23 07:04:26;;;;;;;0.10;0.10;;;8.50;99.90;;;;;;5007870;28;20129;-68
2022/11/23 07:06:51;;;;;;;0.35;0.35;;;8.60;99.90;;;;;;5007541;28;20061;-68
2022/11/23 07:09:17;;;;;;;0.65;0.65;;;8.60;99.90;;;;;;5001936;28;20045;-68
2022/11/23 07:11:43;;;;;;;0.10;0.10;;;8.60;99.90;;;;;;4994592;28;20046;-68
2022/11/23 07:14:09;;;;;;;2.40;0.85;;;8.60;99.90;;;;;;5006381;28;20077;-68
2022/11/23 07:16:34;;;;;;;0.35;0.35;;;8.60;99.90;;;;;;5006374;28;20104;-68
2022/11/23 07:19:00;;;;;;;2.53;0.50;;;8.60;99.90;;;;;;4988293;28;20042;-67
2022/11/23 07:21:25;;;;;;;1.50;1.45;;;8.60;99.90;;;;;;4990509;28;20117;-67
2022/11/23 07:23:51;;;;;;;0.98;0.93;;;8.60;99.90;;;;;;5000832;28;20049;-67
2022/11/23 07:26:16;;;;;;;0.10;0.10;;;8.60;99.90;;;;;;5010767;28;20056;-67
2022/11/23 07:28:42;;;;;;;0.10;0.10;;;8.70;99.90;;;;;;4994681;28;20054;-67
2022/11/23 07:31:07;;;;;;;0.28;0.28;;;8.60;99.90;;;;;;4984374;28;20041;-66
2022/11/23 07:33:33;;;;;;;0.73;0.73;;;8.70;99.90;;;;;;5010304;28;20100;-67
2022/11/23 07:36:02;;;;;;;0.38;0.38;;;8.70;99.90;;;;;;5009310;28;20068;-66
2022/11/23 07:38:28;;;;;;;0.25;0.25;;;8.70;99.90;;;;;;4990947;28;20042;-67
2022/11/23 07:40:54;;;;;;;0.10;0.10;;;8.70;99.90;;;;;;4990274;28;20057;-67
2022/11/23 07:43:20;;;;;;;0.10;0.10;;;8.70;99.90;;;;;;4995891;28;20041;-67
2022/11/23 07:45:45;;;;;;;0.10;0.10;;;8.70;99.90;;;;;;4992992;28;20042;-66
2022/11/23 07:48:11;;;;;;;0.10;0.10;;;8.70;99.90;;;;;;4990493;28;20181;-67
2022/11/23 07:50:38;;;;;;;0.10;0.10;;;8.70;99.90;;;;;;5017420;28;20117;-67
2022/11/23 07:53:05;;;;;;;0.32;0.32;;;8.70;99.90;;;;;;5011063;28;20129;-66
2022/11/23 07:55:31;;;;;;;0.52;0.40;;;8.70;99.90;;;;;;5002362;28;20440;-66
2022/11/23 07:57:57;;;;;;;0.10;0.10;;;8.70;99.90;;;;;;4996294;28;20060;-66
2022/11/23 08:00:24;;;;;;;0.10;0.10;;;8.80;99.90;;;;;;4997571;28;20121;-66
2022/11/23 08:02:50;;;;;;;0.55;0.55;;;8.80;99.90;;;;;;5007200;28;20552;-66
2022/11/23 08:05:16;;;;;;;0.85;0.85;;;8.80;99.90;;;;;;4993464;28;20046;-66
2022/11/23 08:07:42;;;;;;;0.30;0.30;;;8.80;99.90;;;;;;5009377;28;20069;-67
2022/11/23 08:10:08;;;;;;;0.00;0.00;;;8.80;99.90;;;;;;4997816;28;20058;-67
2022/11/23 08:12:34;;;;;;;0.75;0.75;;;8.70;99.90;;;;;;4973199;28;20540;-67
2022/11/23 08:14:59;;;;;;;0.20;0.20;;;8.80;99.90;;;;;;5005223;28;20046;-67
2022/11/23 08:17:25;;;;;;;0.10;0.10;;;8.70;99.90;;;;;;4972761;28;20466;-67
2022/11/23 08:19:50;;;;;;;0.35;0.35;;;8.80;99.90;;;;;;4988979;28;20105;-67
2022/11/23 08:22:17;;;;;;;0.73;0.65;;;8.80;99.90;;;;;;4991781;28;20038;-67
2022/11/23 08:24:42;;;;;;;4.85;2.38;;;8.80;99.90;;;;;;4991181;28;20052;-68
2022/11/23 08:27:08;;;;;;;0.10;0.10;;;8.80;99.90;;;;;;5009029;28;20038;-67
2022/11/23 08:29:33;;;;;;;0.10;0.10;;;8.80;99.90;;;;;;5021922;28;20050;-67
2022/11/23 08:31:59;;;;;;;0.15;0.15;;;8.80;99.90;;;;;;4993958;28;20052;-66
2022/11/23 08:34:25;;;;;;;0.10;0.10;;;8.80;99.90;;;;;;4981910;28;20054;-67
2022/11/23 08:36:50;;;;;;;0.55;0.55;;;8.90;99.90;;;;;;4989304;28;20073;-67
2022/11/23 08:39:18;;;;;;;9.48;2.88;;;8.90;99.90;;;;;;5006658;28;20067;-67
2022/11/23 08:41:43;;;;;;;0.10;0.10;;;8.90;99.90;;;;;;5001706;28;20096;-67
2022/11/23 08:44:10;;;;;;;1.17;0.95;;;9.00;99.90;;;;;;4996180;28;20053;-66
2022/11/23 08:46:36;;;;;;;1.83;1.23;;;9.00;99.90;;;;;;4999603;28;20405;-67
2022/11/23 08:49:02;;;;;;;0.38;0.38;;;9.10;99.90;;;;;;4975648;28;20053;-66
2022/11/23 08:51:28;;;;;;;0.50;0.50;;;9.10;99.90;;;;;;4989493;28;20136;-67
2022/11/23 08:53:54;;;;;;;0.50;0.50;;;9.10;99.90;;;;;;4998335;28;20117;-66
2022/11/23 08:56:19;;;;;;;0.10;0.10;;;9.10;99.90;;;;;;5012895;28;20077;-66
2022/11/23 08:58:45;;;;;;;0.55;0.55;;;9.10;99.90;;;;;;5012689;28;20474;-67
2022/11/23 09:01:13;;;;;;;0.15;0.15;;;9.20;99.90;;;;;;5004133;28;20054;-66
2022/11/23 09:03:39;;;;;;;2.47;1.20;;;9.10;99.90;;;;;;5008337;28;20045;-66
2022/11/23 09:06:06;;;;;;;0.20;0.20;;;9.10;99.90;;;;;;5012126;28;20038;-66
2022/11/23 09:08:32;;;;;;;0.82;0.82;;;9.10;99.90;;;;;;4993273;28;20128;-66
2022/11/23 09:11:01;;;;;;;0.38;0.38;;;9.10;99.90;;;;;;5012412;28;20049;-67
2022/11/23 09:13:28;;;;;;;0.20;0.15;;;9.10;99.90;;;;;;5007576;28;20049;-67
2022/11/23 09:15:57;;;;;;;1.35;1.25;;;9.20;99.90;;;;;;4994657;28;20409;-67
2022/11/23 09:18:24;;;;;;;0.10;0.10;;;9.20;99.90;;;;;;4976547;28;20506;-67
2022/11/23 09:20:49;;;;;;;0.32;0.32;;;9.20;99.90;;;;;;5001717;28;20042;-67
2022/11/23 09:23:15;;;;;;;1.30;1.15;;;9.20;99.90;;;;;;4989748;28;20509;-67
2022/11/23 09:25:42;;;;;;;0.30;0.30;;;9.20;99.90;;;;;;4997998;28;20057;-67
2022/11/23 09:28:07;;;;;;;0.10;0.10;;;9.20;99.90;;;;;;5004741;28;20604;-67
2022/11/23 09:30:33;;;;;;;0.10;0.10;;;9.10;99.90;;;;;;5008315;28;20120;-67
2022/11/23 09:32:59;;;;;;;0.75;0.57;;;9.20;99.90;;;;;;4996714;28;20076;-67
2022/11/23 09:35:24;;;;;;;4.47;1.65;;;9.20;99.90;;;;;;5018207;28;20075;-66
2022/11/23 09:37:57;;;;;;;4.68;1.75;;;9.20;99.90;;;;;;5004414;28;20096;-66
2022/11/23 09:40:27;;;;;;;1.52;0.63;;;9.20;99.90;;;;;;5005291;28;20049;-67
2022/11/23 09:43:26;;;;;;;0.30;0.30;;;9.20;99.90;;;;;;5010731;28;20034;-66
2022/11/23 09:45:53;;;;;;;0.20;0.20;;;9.20;99.90;;;;;;5004498;28;20052;-66
2022/11/23 09:49:01;;;;;;;0.10;0.10;;;9.20;99.90;;;;;;4986919;28;20046;-66
2022/11/23 09:51:27;;;;;;;0.10;0.10;;;9.20;99.90;;;;;;4995756;28;20522;-67
2022/11/23 09:53:57;;;;;;;0.10;0.10;;;9.30;99.90;;;;;;5002061;28;20042;-66
2022/11/23 09:56:33;;;;;;;0.08;0.08;;;9.30;99.90;;;;;;5010017;28;20049;-67
2022/11/23 09:59:02;;;;;;;1.75;0.95;;;9.40;99.90;;;;;;4992022;28;20050;-66
2022/11/23 10:01:29;;;;;;;0.00;0.00;;;9.40;99.90;;;;;;4994692;28;20049;-67
2022/11/23 10:03:55;;;;;;;0.30;0.30;;;9.40;99.90;;;;;;4991164;28;20050;-66
2022/11/23 10:06:21;;;;;;;0.10;0.10;;;9.50;99.90;;;;;;4996568;28;20077;-66
2022/11/23 10:09:11;;;;;;;0.10;0.10;;;9.50;99.90;;;;;;5010424;28;20076;-67
2022/11/23 10:12:20;;;;;;;0.10;0.10;;;9.50;99.90;;;;;;5009434;28;20046;-67
2022/11/23 10:15:08;;;;;;;0.10;0.10;;;9.50;99.90;;;;;;5007107;28;20042;-67
2022/11/23 10:17:56;;;;;;;0.32;0.32;;;9.60;99.90;;;;;;4991929;28;20049;-67
2022/11/23 10:20:36;;;;;;;0.22;0.22;;;9.70;99.90;;;;;;5010358;28;20052;-67
2022/11/23 10:23:11;;;;;;;0.20;0.20;;;9.70;99.90;;;;;;4991684;28;20057;-67
2022/11/23 10:25:44;;;;;;;0.10;0.10;;;9.80;99.90;;;;;;5010784;28;20077;-67
2022/11/23 10:28:17;;;;;;;1.00;1.00;;;9.80;99.90;;;;;;5005261;28;20042;-67
2022/11/23 10:30:46;;;;;;;0.03;0.03;;;9.80;99.90;;;;;;5013446;28;20268;-67
2022/11/23 10:33:52;;;;;;;0.90;0.90;;;9.80;99.90;;;;;;5019598;28;20523;-66
2022/11/23 10:36:17;;;;;;;0.00;0.00;;;9.80;99.90;;;;;;4950837;28;20089;-66
2022/11/23 10:38:46;;;;;;;0.57;0.30;;;9.80;99.90;;;;;;5010067;28;20088;-66
2022/11/23 10:41:12;;;;;;;0.30;0.30;;;9.80;99.90;;;;;;5009162;28;20128;-67
2022/11/23 10:44:00;;;;;;;0.10;0.10;;;9.90;99.90;;;;;;4993160;28;20092;-67
2022/11/23 10:46:36;;;;;;;0.10;0.10;;;10.00;99.90;;;;;;5002083;28;20042;-67
2022/11/23 10:49:29;;;;;;;0.10;0.10;;;10.00;99.90;;;;;;5010695;28;20097;-66
2022/11/23 10:52:02;;;;;;;0.00;0.00;;;10.00;99.90;;;;;;5006555;28;20092;-66
2022/11/23 10:54:45;;;;;;;0.10;0.10;;;10.00;99.90;;;;;;5005301;28;20038;-67
2022/11/23 10:57:32;;;;;;;0.13;0.13;;;10.10;99.90;;;;;;4989998;28;20054;-66
2022/11/23 11:00:00;;;;;;;0.77;0.38;;;10.00;99.90;;;;;;4991646;28;20042;-66
2022/11/23 11:02:27;;;;;;;0.10;0.10;;;10.00;99.90;;;;;;4992950;28;20418;-66
2022/11/23 11:05:11;;;;;;;0.10;0.10;;;10.00;99.90;;;;;;4994104;28;20053;-67
2022/11/23 11:07:38;;;;;;;0.10;0.10;;;10.00;99.90;;;;;;5010487;28;20158;-66
2022/11/23 11:10:04;;;;;;;0.10;0.10;;;10.10;99.90;;;;;;5001396;28;20056;-67
2022/11/23 11:12:33;;;;;;;0.10;0.10;;;10.20;99.90;;;;;;5010727;28;20500;-67
2022/11/23 11:15:13;;;;;;;0.10;0.10;;;10.20;99.90;;;;;;4984806;28;20048;-66
2022/11/23 11:17:40;;;;;;;0.10;0.10;;;10.20;99.90;;;;;;4983697;28;20620;-67
2022/11/23 11:20:26;;;;;;;0.00;0.00;;;10.20;99.90;;;;;;5021987;28;20041;-67
2022/11/23 11:22:53;;;;;;;0.10;0.10;;;10.30;99.90;;;;;;4989760;28;20058;-67
2022/11/23 11:25:29;;;;;;;0.10;0.10;;;10.40;99.90;;;;;;4995707;28;20497;-67
2022/11/23 11:27:55;;;;;;;0.40;0.40;;;10.50;99.90;;;;;;4996663;28;20054;-67
2022/11/23 11:30:30;;;;;;;0.00;0.00;;;10.60;99.90;;;;;;4973283;28;20057;-67
2022/11/23 11:33:11;;;;;;;0.68;0.45;;;10.70;99.90;;;;;;5005262;28;20417;-67
2022/11/23 11:35:42;;;;;;;3.50;0.65;;;10.70;99.90;;;;;;5006508;28;20054;-66
2022/11/23 11:38:21;;;;;;;0.38;0.38;;;10.80;99.90;;;;;;5016396;28;20092;-68
2022/11/23 11:40:51;;;;;;;0.45;0.45;;;10.90;99.90;;;;;;4990812;28;20157;-67
2022/11/23 11:43:32;;;;;;;0.75;0.75;;;10.80;99.90;;;;;;5004880;28;20050;-66
2022/11/23 11:46:23;;;;;;;0.85;0.47;;;10.80;99.90;;;;;;4997741;28;20038;-67
2022/11/23 11:48:58;;;;;;;0.15;0.15;;;11.10;99.90;;;;;;4994375;28;20050;-66
2022/11/23 11:51:41;;;;;;;0.10;0.10;;;11.50;99.90;;;;;;5006159;28;20038;-66
2022/11/23 11:54:28;;;;;;;0.10;0.10;;;11.60;99.90;;;;;;5000875;28;20485;-66
2022/11/23 11:57:03;;;;;;;1.23;1.13;;;11.70;99.90;;;;;;5005679;28;20045;-66
2022/11/23 11:59:41;;;;;;;0.17;0.17;;;11.60;99.90;;;;;;4993176;28;20065;-67
2022/11/23 12:02:19;;;;;;;0.90;0.60;;;11.60;99.90;;;;;;5010086;28;20081;-66
2022/11/23 12:05:21;;;;;;;0.10;0.10;;;11.50;99.90;;;;;;4989992;28;20128;-67
2022/11/23 12:07:54;;;;;;;0.50;0.50;;;11.20;99.90;;;;;;4991882;28;20049;-67
2022/11/23 12:10:53;;;;;;;0.10;0.10;;;11.40;99.90;;;;;;5009533;28;20183;-66
2022/11/23 12:13:21;;;;;;;0.00;0.00;;;11.60;99.90;;;;;;5008859;28;20049;-67
2022/11/23 12:16:10;;;;;;;0.10;0.10;;;11.60;99.90;;;;;;5016733;28;20050;-67
2022/11/23 12:18:43;;;;;;;0.00;0.00;;;11.60;99.90;;;;;;4974336;28;20054;-66
2022/11/23 12:21:23;;;;;;;1.02;0.47;;;11.50;99.90;;;;;;4996364;28;20092;-67
2022/11/23 12:23:51;;;;;;;0.30;0.30;;;11.40;99.90;;;;;;4990028;28;20060;-66
2022/11/23 12:26:34;;;;;;;0.00;0.00;;;11.40;99.90;;;;;;4999794;28;20058;-66
2022/11/23 12:29:26;;;;;;;0.00;0.00;;;11.30;99.90;;;;;;5002422;28;20064;-67
2022/11/23 12:32:21;;;;;;;0.75;0.75;;;11.20;99.90;;;;;;4999394;28;20073;-68
2022/11/23 12:34:52;;;;;;;0.30;0.30;;;11.30;99.90;;;;;;4993327;28;20072;-67
2022/11/23 12:37:28;;;;;;;2.00;1.90;;;11.30;99.90;;;;;;4995378;28;20042;-68
2022/11/23 12:40:12;;;;;;;0.10;0.10;;;11.40;99.90;;;;;;4993459;28;20053;-67
2022/11/23 12:42:53;;;;;;;0.15;0.15;;;11.60;99.90;;;;;;5011587;28;20132;-67
2022/11/23 12:45:34;;;;;;;2.35;0.98;;;11.70;99.90;;;;;;5011435;28;20052;-67
2022/11/23 12:48:23;;;;;;;0.38;0.38;;;11.90;99.90;;;;;;4995806;28;20046;-67
2022/11/23 12:51:08;;;;;;;0.20;0.20;;;12.00;99.90;;;;;;5003789;28;20085;-67
2022/11/23 12:53:39;;;;;;;0.17;0.17;;;12.30;99.90;;;;;;4986812;28;20141;-67
2022/11/23 12:56:12;;;;;;;0.00;0.00;;;12.60;99.90;;;;;;4998959;28;20103;-67
2022/11/23 12:58:39;;;;;;;0.60;0.57;;;12.60;99.90;;;;;;5011732;28;20041;-67
2022/11/23 13:01:31;;;;;;;0.10;0.10;;;12.90;99.90;;;;;;5011134;28;20493;-68
2022/11/23 13:04:02;;;;;;;0.00;0.00;;;13.10;99.90;;;;;;4988947;28;20165;-68
2022/11/23 13:06:31;;;;;;;0.20;0.20;;;13.20;99.90;;;;;;5005289;28;20096;-68